sensor_id;sensor_type;location;lat;lon;timestamp;temperature;humidity
56298;DHT22;42208;6.376;-10.782;2023-01-01T00:01:21;26.30;99.90
56298;DHT22;42208;6.376;-10.782;2023-01-01T00:03:51;26.30;99.90
56298;DHT22;42208;6.376;-10.782;2023-01-01T00:06:19;26.30;99.90
56298;DHT22;42208;6.376;-10.782;2023-01-01T00:08:48;26.30;99.90
56298;DHT22;42208;6.376;-10.782;2023-01-01T00:11:17;26.20;99.90
56298;DHT22;42208;6.376;-10.782;2023-01-01T00:13:45;26.20;99.90
56298;DHT22;42208;6.376;-10.782;2023-01-01T00:16:13;26.20;99.90
56298;DHT22;42208;6.376;-10.782;2023-01-01T00:18:42;26.20;99.90
56298;DHT22;42208;6.376;-10.782;2023-01-01T00:21:12;26.20;99.90
56298;DHT22;42208;6.376;-10.782;2023-01-01T00:23:41;26.20;99.90
56298;DHT22;42208;6.376;-10.782;2023-01-01T00:26:10;26.20;99.90
56298;DHT22;42208;6.376;-10.782;2023-01-01T00:28:39;26.20;99.90
56298;DHT22;42208;6.376;-10.782;2023-01-01T00:31:12;26.10;99.90
56298;DHT22;42208;6.376;-10.782;2023-01-01T00:33:41;26.10;99.90
56298;DHT22;42208;6.376;-10.782;2023-01-01T00:38:39;26.00;99.90
56298;DHT22;42208;6.376;-10.782;2023-01-01T00:41:10;26.00;99.90
56298;DHT22;42208;6.376;-10.782;2023-01-01T00:43:39;26.00;99.90
56298;DHT22;42208;6.376;-10.782;2023-01-01T00:46:07;26.00;99.90
56298;DHT22;42208;6.376;-10.782;2023-01-01T00:48:36;25.90;99.90
56298;DHT22;42208;6.376;-10.782;2023-01-01T00:51:05;25.70;99.90
56298;DHT22;42208;6.376;-10.782;2023-01-01T00:53:33;25.70;99.90
56298;DHT22;42208;6.376;-10.782;2023-01-01T00:56:01;25.60;99.90
56298;DHT22;42208;6.376;-10.782;2023-01-01T00:58:30;25.60;99.90
56298;DHT22;42208;6.376;-10.782;2023-01-01T01:00:58;25.60;99.90
56298;DHT22;42208;6.376;-10.782;2023-01-01T01:03:27;25.50;99.90
56298;DHT22;42208;6.376;-10.782;2023-01-01T01:08:32;25.50;99.90
56298;DHT22;42208;6.376;-10.782;2023-01-01T01:11:17;25.50;99.90
56298;DHT22;42208;6.376;-10.782;2023-01-01T01:13:47;25.50;99.90
56298;DHT22;42208;6.376;-10.782;2023-01-01T01:16:18;25.50;99.90
56298;DHT22;42208;6.376;-10.782;2023-01-01T01:18:50;25.40;99.90
56298;DHT22;42208;6.376;-10.782;2023-01-01T01:21:20;25.40;99.90
56298;DHT22;42208;6.376;-10.782;2023-01-01T01:23:49;25.30;99.90
56298;DHT22;42208;6.376;-10.782;2023-01-01T01:26:20;25.40;99.90
56298;DHT22;42208;6.376;-10.782;2023-01-01T01:28:49;25.40;99.90
56298;DHT22;42208;6.376;-10.782;2023-01-01T01:31:19;25.30;99.90
56298;DHT22;42208;6.376;-10.782;2023-01-01T01:33:48;25.20;99.90
56298;DHT22;42208;6.376;-10.782;2023-01-01T01:36:18;25.10;99.90
56298;DHT22;42208;6.376;-10.782;2023-01-01T01:38:46;25.20;99.90
56298;DHT22;42208;6.376;-10.782;2023-01-01T01:41:18;25.20;99.90
56298;DHT22;42208;6.376;-10.782;2023-01-01T01:44:00;25.10;99.90
56298;DHT22;42208;6.376;-10.782;2023-01-01T01:46:33;25.00;99.90
56298;DHT22;42208;6.376;-10.782;2023-01-01T01:49:30;25.00;99.90
56298;DHT22;42208;6.376;-10.782;2023-01-01T01:51:59;25.10;99.90
56298;DHT22;42208;6.376;-10.782;2023-01-01T01:54:29;25.10;99.90
56298;DHT22;42208;6.376;-10.782;2023-01-01T01:57:00;25.20;99.90
56298;DHT22;42208;6.376;-10.782;2023-01-01T01:59:32;25.30;99.90
56298;DHT22;42208;6.376;-10.782;2023-01-01T02:02:01;25.40;99.90
56298;DHT22;42208;6.376;-10.782;2023-01-01T02:04:31;25.40;99.90
56298;DHT22;42208;6.376;-10.782;2023-01-01T02:07:00;25.30;99.90
56298;DHT22;42208;6.376;-10.782;2023-01-01T02:09:28;25.30;99.90
56298;DHT22;42208;6.376;-10.782;2023-01-01T02:11:58;25.40;99.90
56298;DHT22;42208;6.376;-10.782;2023-01-01T02:14:26;25.40;99.90
56298;DHT22;42208;6.376;-10.782;2023-01-01T02:17:06;25.40;99.90
56298;DHT22;42208;6.376;-10.782;2023-01-01T02:28:43;25.30;99.90
56298;DHT22;42208;6.376;-10.782;2023-01-01T02:31:27;25.30;99.90
56298;DHT22;42208;6.376;-10.782;2023-01-01T02:34:00;25.20;99.90
56298;DHT22;42208;6.376;-10.782;2023-01-01T02:36:32;25.10;99.90
56298;DHT22;42208;6.376;-10.782;2023-01-01T02:39:01;25.00;99.90
56298;DHT22;42208;6.376;-10.782;2023-01-01T02:41:53;25.00;99.90
56298;DHT22;42208;6.376;-10.782;2023-01-01T02:44:23;25.00;99.90
56298;DHT22;42208;6.376;-10.782;2023-01-01T02:46:53;25.10;99.90
56298;DHT22;42208;6.376;-10.782;2023-01-01T02:49:21;25.20;99.90
56298;DHT22;42208;6.376;-10.782;2023-01-01T02:55:42;25.20;99.90
56298;DHT22;42208;6.376;-10.782;2023-01-01T03:00:47;25.00;99.90
56298;DHT22;42208;6.376;-10.782;2023-01-01T03:03:41;25.00;99.90
56298;DHT22;42208;6.376;-10.782;2023-01-01T03:12:53;24.70;99.90
56298;DHT22;42208;6.376;-10.782;2023-01-01T03:18:14;24.60;99.90
56298;DHT22;42208;6.376;-10.782;2023-01-01T03:20:49;24.70;99.90
56298;DHT22;42208;6.376;-10.782;2023-01-01T03:23:22;24.60;99.90
56298;DHT22;42208;6.376;-10.782;2023-01-01T03:25:54;24.60;99.90
56298;DHT22;42208;6.376;-10.782;2023-01-01T03:28:55;24.60;99.90
56298;DHT22;42208;6.376;-10.782;2023-01-01T03:31:24;24.70;99.90
56298;DHT22;42208;6.376;-10.782;2023-01-01T03:34:00;24.60;99.90
56298;DHT22;42208;6.376;-10.782;2023-01-01T03:36:43;24.70;99.90
56298;DHT22;42208;6.376;-10.782;2023-01-01T03:39:20;24.60;99.90
56298;DHT22;42208;6.376;-10.782;2023-01-01T03:45:02;24.60;99.90
56298;DHT22;42208;6.376;-10.782;2023-01-01T03:47:32;24.60;99.90
56298;DHT22;42208;6.376;-10.782;2023-01-01T03:50:02;24.50;99.90
56298;DHT22;42208;6.376;-10.782;2023-01-01T03:52:42;24.50;99.90
56298;DHT22;42208;6.376;-10.782;2023-01-01T03:55:32;24.60;99.90
56298;DHT22;42208;6.376;-10.782;2023-01-01T04:01:26;24.50;99.90
56298;DHT22;42208;6.376;-10.782;2023-01-01T04:03:56;24.60;99.90
56298;DHT22;42208;6.376;-10.782;2023-01-01T04:06:26;24.50;99.90
56298;DHT22;42208;6.376;-10.782;2023-01-01T04:08:58;24.60;99.90
56298;DHT22;42208;6.376;-10.782;2023-01-01T04:11:29;24.50;99.90
56298;DHT22;42208;6.376;-10.782;2023-01-01T04:13:58;24.50;99.90
56298;DHT22;42208;6.376;-10.782;2023-01-01T04:16:26;24.60;99.90
56298;DHT22;42208;6.376;-10.782;2023-01-01T04:18:55;24.50;99.90
56298;DHT22;42208;6.376;-10.782;2023-01-01T04:21:23;24.50;99.90
56298;DHT22;42208;6.376;-10.782;2023-01-01T04:23:51;24.50;99.90
56298;DHT22;42208;6.376;-10.782;2023-01-01T04:26:20;24.50;99.90
56298;DHT22;42208;6.376;-10.782;2023-01-01T04:28:48;24.50;99.90
56298;DHT22;42208;6.376;-10.782;2023-01-01T04:31:16;24.50;99.90
56298;DHT22;42208;6.376;-10.782;2023-01-01T04:33:45;24.50;99.90
56298;DHT22;42208;6.376;-10.782;2023-01-01T04:36:13;24.50;99.90
56298;DHT22;42208;6.376;-10.782;2023-01-01T04:38:41;24.50;99.90
56298;DHT22;42208;6.376;-10.782;2023-01-01T04:41:09;24.50;99.90
56298;DHT22;42208;6.376;-10.782;2023-01-01T04:43:37;24.40;99.90
56298;DHT22;42208;6.376;-10.782;2023-01-01T04:46:06;24.40;99.90
56298;DHT22;42208;6.376;-10.782;2023-01-01T04:48:34;24.40;99.90
56298;DHT22;42208;6.376;-10.782;2023-01-01T04:51:04;24.50;99.90
56298;DHT22;42208;6.376;-10.782;2023-01-01T04:53:33;24.50;99.90
56298;DHT22;42208;6.376;-10.782;2023-01-01T04:56:07;24.60;99.90
56298;DHT22;42208;6.376;-10.782;2023-01-01T04:58:37;24.50;99.90
56298;DHT22;42208;6.376;-10.782;2023-01-01T05:01:06;24.50;99.90
56298;DHT22;42208;6.376;-10.782;2023-01-01T05:03:36;24.40;99.90
56298;DHT22;42208;6.376;-10.782;2023-01-01T05:06:07;24.40;99.90
56298;DHT22;42208;6.376;-10.782;2023-01-01T05:08:37;24.40;99.90
56298;DHT22;42208;6.376;-10.782;2023-01-01T05:11:14;24.40;99.90
56298;DHT22;42208;6.376;-10.782;2023-01-01T05:13:45;24.40;99.90
56298;DHT22;42208;6.376;-10.782;2023-01-01T05:16:16;24.30;99.90
56298;DHT22;42208;6.376;-10.782;2023-01-01T05:18:45;24.40;99.90
56298;DHT22;42208;6.376;-10.782;2023-01-01T05:21:21;24.40;99.90
56298;DHT22;42208;6.376;-10.782;2023-01-01T05:23:58;24.30;99.90
56298;DHT22;42208;6.376;-10.782;2023-01-01T05:26:29;24.30;99.90
56298;DHT22;42208;6.376;-10.782;2023-01-01T05:28:59;24.30;99.90
56298;DHT22;42208;6.376;-10.782;2023-01-01T05:31:30;24.30;99.90
56298;DHT22;42208;6.376;-10.782;2023-01-01T05:34:00;24.30;99.90
56298;DHT22;42208;6.376;-10.782;2023-01-01T05:36:35;24.40;99.90
56298;DHT22;42208;6.376;-10.782;2023-01-01T05:39:08;24.30;99.90
56298;DHT22;42208;6.376;-10.782;2023-01-01T05:41:39;24.20;99.90
56298;DHT22;42208;6.376;-10.782;2023-01-01T05:44:08;24.20;99.90
56298;DHT22;42208;6.376;-10.782;2023-01-01T05:46:37;24.20;99.90
56298;DHT22;42208;6.376;-10.782;2023-01-01T05:49:05;24.20;99.90
56298;DHT22;42208;6.376;-10.782;2023-01-01T05:51:36;24.10;99.90
56298;DHT22;42208;6.376;-10.782;2023-01-01T05:54:03;24.10;99.90
56298;DHT22;42208;6.376;-10.782;2023-01-01T05:56:33;24.10;99.90
56298;DHT22;42208;6.376;-10.782;2023-01-01T05:59:01;24.20;99.90
56298;DHT22;42208;6.376;-10.782;2023-01-01T06:01:30;24.20;99.90
56298;DHT22;42208;6.376;-10.782;2023-01-01T06:03:58;24.20;99.90
56298;DHT22;42208;6.376;-10.782;2023-01-01T06:06:29;24.20;99.90
56298;DHT22;42208;6.376;-10.782;2023-01-01T06:09:00;24.20;99.90
56298;DHT22;42208;6.376;-10.782;2023-01-01T06:11:29;24.20;99.90
56298;DHT22;42208;6.376;-10.782;2023-01-01T06:13:59;24.10;99.90
56298;DHT22;42208;6.376;-10.782;2023-01-01T06:16:28;24.10;99.90
56298;DHT22;42208;6.376;-10.782;2023-01-01T06:18:58;24.10;99.90
56298;DHT22;42208;6.376;-10.782;2023-01-01T06:21:28;24.10;99.90
56298;DHT22;42208;6.376;-10.782;2023-01-01T06:23:57;24.10;99.90
56298;DHT22;42208;6.376;-10.782;2023-01-01T06:26:29;24.10;99.90
56298;DHT22;42208;6.376;-10.782;2023-01-01T06:28:58;24.10;99.90
56298;DHT22;42208;6.376;-10.782;2023-01-01T06:31:28;24.10;99.90
56298;DHT22;42208;6.376;-10.782;2023-01-01T06:34:03;24.20;99.90
56298;DHT22;42208;6.376;-10.782;2023-01-01T06:36:31;24.20;99.90
56298;DHT22;42208;6.376;-10.782;2023-01-01T06:38:59;24.10;99.90
56298;DHT22;42208;6.376;-10.782;2023-01-01T06:41:28;24.10;99.90
56298;DHT22;42208;6.376;-10.782;2023-01-01T06:43:58;24.20;99.90
56298;DHT22;42208;6.376;-10.782;2023-01-01T06:46:28;24.20;99.90
56298;DHT22;42208;6.376;-10.782;2023-01-01T06:49:03;24.20;99.90
56298;DHT22;42208;6.376;-10.782;2023-01-01T06:51:42;24.30;99.90
56298;DHT22;42208;6.376;-10.782;2023-01-01T06:54:11;24.30;99.90
56298;DHT22;42208;6.376;-10.782;2023-01-01T06:56:39;24.30;99.90
56298;DHT22;42208;6.376;-10.782;2023-01-01T06:59:07;24.30;99.90
56298;DHT22;42208;6.376;-10.782;2023-01-01T07:01:37;24.40;99.90
56298;DHT22;42208;6.376;-10.782;2023-01-01T07:04:09;24.30;99.90
56298;DHT22;42208;6.376;-10.782;2023-01-01T07:06:38;24.30;99.90
56298;DHT22;42208;6.376;-10.782;2023-01-01T07:09:07;24.30;99.90
56298;DHT22;42208;6.376;-10.782;2023-01-01T07:11:35;24.30;99.90
56298;DHT22;42208;6.376;-10.782;2023-01-01T07:14:04;24.30;99.90
56298;DHT22;42208;6.376;-10.782;2023-01-01T07:16:32;24.30;99.90
56298;DHT22;42208;6.376;-10.782;2023-01-01T07:19:00;24.40;99.90
56298;DHT22;42208;6.376;-10.782;2023-01-01T07:21:32;24.40;99.90
56298;DHT22;42208;6.376;-10.782;2023-01-01T07:24:03;24.40;99.90
56298;DHT22;42208;6.376;-10.782;2023-01-01T07:26:32;24.40;99.90
56298;DHT22;42208;6.376;-10.782;2023-01-01T07:29:01;24.40;99.90
56298;DHT22;42208;6.376;-10.782;2023-01-01T07:31:44;24.40;99.90
56298;DHT22;42208;6.376;-10.782;2023-01-01T07:34:15;24.50;99.90
56298;DHT22;42208;6.376;-10.782;2023-01-01T07:36:44;24.50;99.90
56298;DHT22;42208;6.376;-10.782;2023-01-01T07:39:12;24.40;99.90
56298;DHT22;42208;6.376;-10.782;2023-01-01T07:41:40;24.40;99.90
56298;DHT22;42208;6.376;-10.782;2023-01-01T07:44:12;24.40;99.90
56298;DHT22;42208;6.376;-10.782;2023-01-01T07:46:40;24.40;99.90
56298;DHT22;42208;6.376;-10.782;2023-01-01T07:49:08;24.50;99.90
56298;DHT22;42208;6.376;-10.782;2023-01-01T07:51:37;24.50;99.90
56298;DHT22;42208;6.376;-10.782;2023-01-01T07:54:06;24.40;99.90
56298;DHT22;42208;6.376;-10.782;2023-01-01T07:56:35;24.50;99.90
56298;DHT22;42208;6.376;-10.782;2023-01-01T07:59:03;24.50;99.90
56298;DHT22;42208;6.376;-10.782;2023-01-01T08:01:35;24.60;99.90
56298;DHT22;42208;6.376;-10.782;2023-01-01T08:04:03;24.70;99.90
56298;DHT22;42208;6.376;-10.782;2023-01-01T08:06:32;24.70;99.90
56298;DHT22;42208;6.376;-10.782;2023-01-01T08:09:00;24.80;99.90
56298;DHT22;42208;6.376;-10.782;2023-01-01T08:11:29;24.80;99.90
56298;DHT22;42208;6.376;-10.782;2023-01-01T08:13:57;24.80;99.90
56298;DHT22;42208;6.376;-10.782;2023-01-01T08:16:25;24.90;99.90
56298;DHT22;42208;6.376;-10.782;2023-01-01T08:18:54;24.90;99.90
56298;DHT22;42208;6.376;-10.782;2023-01-01T08:21:22;25.00;99.90
56298;DHT22;42208;6.376;-10.782;2023-01-01T08:23:50;25.10;99.90
56298;DHT22;42208;6.376;-10.782;2023-01-01T08:26:29;25.30;99.90
56298;DHT22;42208;6.376;-10.782;2023-01-01T08:29:00;25.30;99.90
56298;DHT22;42208;6.376;-10.782;2023-01-01T08:31:28;25.40;99.90
56298;DHT22;42208;6.376;-10.782;2023-01-01T08:33:56;25.40;99.90
56298;DHT22;42208;6.376;-10.782;2023-01-01T08:36:25;25.40;99.90
56298;DHT22;42208;6.376;-10.782;2023-01-01T08:38:53;25.50;99.90
56298;DHT22;42208;6.376;-10.782;2023-01-01T08:41:21;25.60;99.90
56298;DHT22;42208;6.376;-10.782;2023-01-01T08:43:50;25.60;99.90
56298;DHT22;42208;6.376;-10.782;2023-01-01T08:46:18;25.70;99.90
56298;DHT22;42208;6.376;-10.782;2023-01-01T08:48:46;25.80;99.90
56298;DHT22;42208;6.376;-10.782;2023-01-01T08:51:15;25.90;99.90
56298;DHT22;42208;6.376;-10.782;2023-01-01T08:53:43;26.00;99.90
56298;DHT22;42208;6.376;-10.782;2023-01-01T08:56:18;26.10;99.90
56298;DHT22;42208;6.376;-10.782;2023-01-01T08:58:46;26.20;99.90
56298;DHT22;42208;6.376;-10.782;2023-01-01T09:01:14;26.30;99.90
56298;DHT22;42208;6.376;-10.782;2023-01-01T09:03:43;26.30;99.90
56298;DHT22;42208;6.376;-10.782;2023-01-01T09:06:11;26.30;99.90
56298;DHT22;42208;6.376;-10.782;2023-01-01T09:08:40;26.40;99.90
56298;DHT22;42208;6.376;-10.782;2023-01-01T09:11:22;26.50;99.90
56298;DHT22;42208;6.376;-10.782;2023-01-01T09:13:51;26.60;99.90
56298;DHT22;42208;6.376;-10.782;2023-01-01T09:16:21;26.70;99.90
56298;DHT22;42208;6.376;-10.782;2023-01-01T09:18:49;26.80;99.90
56298;DHT22;42208;6.376;-10.782;2023-01-01T09:21:18;26.80;99.90
56298;DHT22;42208;6.376;-10.782;2023-01-01T09:23:46;26.80;99.90
56298;DHT22;42208;6.376;-10.782;2023-01-01T09:26:14;26.90;99.90
56298;DHT22;42208;6.376;-10.782;2023-01-01T09:28:42;27.00;99.90
56298;DHT22;42208;6.376;-10.782;2023-01-01T09:31:11;27.00;99.90
56298;DHT22;42208;6.376;-10.782;2023-01-01T09:33:39;27.10;99.90
56298;DHT22;42208;6.376;-10.782;2023-01-01T09:36:24;27.10;99.90
56298;DHT22;42208;6.376;-10.782;2023-01-01T09:38:54;27.20;99.90
56298;DHT22;42208;6.376;-10.782;2023-01-01T09:44:02;27.20;99.90
56298;DHT22;42208;6.376;-10.782;2023-01-01T09:46:32;27.30;99.90
56298;DHT22;42208;6.376;-10.782;2023-01-01T09:49:06;27.40;99.90
56298;DHT22;42208;6.376;-10.782;2023-01-01T09:51:39;27.40;99.90
56298;DHT22;42208;6.376;-10.782;2023-01-01T09:57:01;27.70;99.90
56298;DHT22;42208;6.376;-10.782;2023-01-01T09:59:30;27.70;99.90
56298;DHT22;42208;6.376;-10.782;2023-01-01T10:02:31;27.80;99.90
56298;DHT22;42208;6.376;-10.782;2023-01-01T10:05:25;27.80;99.90
56298;DHT22;42208;6.376;-10.782;2023-01-01T10:10:49;27.90;99.90
56298;DHT22;42208;6.376;-10.782;2023-01-01T10:18:54;28.00;99.90
56298;DHT22;42208;6.376;-10.782;2023-01-01T10:21:24;28.10;99.90
56298;DHT22;42208;6.376;-10.782;2023-01-01T10:24:00;28.30;99.90
56298;DHT22;42208;6.376;-10.782;2023-01-01T10:26:29;28.30;99.90
56298;DHT22;42208;6.376;-10.782;2023-01-01T10:31:36;28.50;99.90
56298;DHT22;42208;6.376;-10.782;2023-01-01T10:36:56;28.60;99.90
56298;DHT22;42208;6.376;-10.782;2023-01-01T10:39:26;28.70;99.90
56298;DHT22;42208;6.376;-10.782;2023-01-01T10:41:56;28.70;99.90
56298;DHT22;42208;6.376;-10.782;2023-01-01T10:44:34;28.80;99.90
56298;DHT22;42208;6.376;-10.782;2023-01-01T10:50:00;28.90;99.90
56298;DHT22;42208;6.376;-10.782;2023-01-01T10:52:39;28.90;99.90
56298;DHT22;42208;6.376;-10.782;2023-01-01T10:55:28;29.00;99.90
56298;DHT22;42208;6.376;-10.782;2023-01-01T10:57:56;29.00;99.90
56298;DHT22;42208;6.376;-10.782;2023-01-01T11:00:28;29.00;99.90
56298;DHT22;42208;6.376;-10.782;2023-01-01T11:03:18;29.20;99.90
56298;DHT22;42208;6.376;-10.782;2023-01-01T11:06:11;29.30;99.90
56298;DHT22;42208;6.376;-10.782;2023-01-01T11:08:47;29.30;99.90
56298;DHT22;42208;6.376;-10.782;2023-01-01T11:13:50;29.70;99.90
56298;DHT22;42208;6.376;-10.782;2023-01-01T11:16:19;29.80;99.90
56298;DHT22;42208;6.376;-10.782;2023-01-01T11:18:49;29.90;99.90
56298;DHT22;42208;6.376;-10.782;2023-01-01T11:21:22;29.80;99.90
56298;DHT22;42208;6.376;-10.782;2023-01-01T11:24:15;29.80;99.90
56298;DHT22;42208;6.376;-10.782;2023-01-01T11:26:44;29.90;99.90
56298;DHT22;42208;6.376;-10.782;2023-01-01T11:29:28;29.70;99.90
56298;DHT22;42208;6.376;-10.782;2023-01-01T11:31:57;29.70;99.90
56298;DHT22;42208;6.376;-10.782;2023-01-01T11:34:39;29.50;99.90
56298;DHT22;42208;6.376;-10.782;2023-01-01T11:37:15;29.50;99.90
56298;DHT22;42208;6.376;-10.782;2023-01-01T11:39:48;29.50;99.90
56298;DHT22;42208;6.376;-10.782;2023-01-01T11:42:23;29.30;99.90
56298;DHT22;42208;6.376;-10.782;2023-01-01T11:45:30;29.30;99.90
56298;DHT22;42208;6.376;-10.782;2023-01-01T11:47:57;29.40;99.90
56298;DHT22;42208;6.376;-10.782;2023-01-01T11:50:32;29.60;99.90
56298;DHT22;42208;6.376;-10.782;2023-01-01T11:55:58;29.70;99.90
56298;DHT22;42208;6.376;-10.782;2023-01-01T12:01:30;29.60;99.90
56298;DHT22;42208;6.376;-10.782;2023-01-01T12:04:30;29.50;99.90
56298;DHT22;42208;6.376;-10.782;2023-01-01T12:07:23;29.50;99.90
56298;DHT22;42208;6.376;-10.782;2023-01-01T12:10:12;29.50;99.90
56298;DHT22;42208;6.376;-10.782;2023-01-01T12:13:06;29.60;99.90
56298;DHT22;42208;6.376;-10.782;2023-01-01T12:16:05;29.80;99.90
56298;DHT22;42208;6.376;-10.782;2023-01-01T12:18:46;29.80;99.90
56298;DHT22;42208;6.376;-10.782;2023-01-01T12:21:25;29.90;99.90
56298;DHT22;42208;6.376;-10.782;2023-01-01T12:23:54;29.90;99.90
56298;DHT22;42208;6.376;-10.782;2023-01-01T12:26:54;30.00;99.90
56298;DHT22;42208;6.376;-10.782;2023-01-01T12:47:43;30.00;99.90
56298;DHT22;42208;6.376;-10.782;2023-01-01T12:53:38;30.40;99.90
56298;DHT22;42208;6.376;-10.782;2023-01-01T12:56:19;30.40;99.90
56298;DHT22;42208;6.376;-10.782;2023-01-01T12:58:51;30.20;99.90
56298;DHT22;42208;6.376;-10.782;2023-01-01T13:01:29;30.20;99.90
56298;DHT22;42208;6.376;-10.782;2023-01-01T13:04:12;30.20;99.90
56298;DHT22;42208;6.376;-10.782;2023-01-01T13:06:56;30.30;99.90
56298;DHT22;42208;6.376;-10.782;2023-01-01T13:09:40;30.30;99.90
56298;DHT22;42208;6.376;-10.782;2023-01-01T13:12:13;30.50;99.90
56298;DHT22;42208;6.376;-10.782;2023-01-01T13:14:44;30.60;99.90
56298;DHT22;42208;6.376;-10.782;2023-01-01T13:17:22;30.40;99.90
56298;DHT22;42208;6.376;-10.782;2023-01-01T13:20:29;30.60;99.90
56298;DHT22;42208;6.376;-10.782;2023-01-01T13:22:58;30.70;99.90
56298;DHT22;42208;6.376;-10.782;2023-01-01T13:25:26;30.70;99.90
56298;DHT22;42208;6.376;-10.782;2023-01-01T13:33:28;30.90;99.90
56298;DHT22;42208;6.376;-10.782;2023-01-01T13:49:55;31.10;99.90
56298;DHT22;42208;6.376;-10.782;2023-01-01T13:55:52;31.20;99.90
56298;DHT22;42208;6.376;-10.782;2023-01-01T13:58:49;31.30;99.90
56298;DHT22;42208;6.376;-10.782;2023-01-01T14:04:42;31.30;99.90
56298;DHT22;42208;6.376;-10.782;2023-01-01T14:10:31;31.20;99.90
56298;DHT22;42208;6.376;-10.782;2023-01-01T14:15:37;31.30;99.90
56298;DHT22;42208;6.376;-10.782;2023-01-01T14:18:14;31.30;99.90
56298;DHT22;42208;6.376;-10.782;2023-01-01T14:20:51;31.40;99.90
56298;DHT22;42208;6.376;-10.782;2023-01-01T14:23:34;31.30;99.90
56298;DHT22;42208;6.376;-10.782;2023-01-01T14:26:07;31.30;99.90
56298;DHT22;42208;6.376;-10.782;2023-01-01T14:28:37;31.40;99.90
56298;DHT22;42208;6.376;-10.782;2023-01-01T14:31:10;31.30;99.90
56298;DHT22;42208;6.376;-10.782;2023-01-01T14:33:39;31.60;99.90
56298;DHT22;42208;6.376;-10.782;2023-01-01T14:38:50;31.60;99.90
56298;DHT22;42208;6.376;-10.782;2023-01-01T14:41:23;31.40;99.90
56298;DHT22;42208;6.376;-10.782;2023-01-01T14:43:55;31.30;99.90
56298;DHT22;42208;6.376;-10.782;2023-01-01T14:46:25;31.00;99.90
56298;DHT22;42208;6.376;-10.782;2023-01-01T14:48:56;30.90;99.90
56298;DHT22;42208;6.376;-10.782;2023-01-01T14:51:27;30.90;99.90
56298;DHT22;42208;6.376;-10.782;2023-01-01T14:54:02;31.00;99.90
56298;DHT22;42208;6.376;-10.782;2023-01-01T14:56:36;30.80;99.90
56298;DHT22;42208;6.376;-10.782;2023-01-01T14:59:33;30.90;99.90
56298;DHT22;42208;6.376;-10.782;2023-01-01T15:04:51;30.90;99.90
56298;DHT22;42208;6.376;-10.782;2023-01-01T15:07:28;31.10;99.90
56298;DHT22;42208;6.376;-10.782;2023-01-01T15:09:58;31.40;99.90
56298;DHT22;42208;6.376;-10.782;2023-01-01T15:12:28;31.60;99.90
56298;DHT22;42208;6.376;-10.782;2023-01-01T15:14:57;31.70;99.90
56298;DHT22;42208;6.376;-10.782;2023-01-01T15:17:26;31.90;99.90
56298;DHT22;42208;6.376;-10.782;2023-01-01T15:20:03;32.00;99.90
56298;DHT22;42208;6.376;-10.782;2023-01-01T15:22:36;32.10;99.90
56298;DHT22;42208;6.376;-10.782;2023-01-01T15:25:05;32.20;99.90
56298;DHT22;42208;6.376;-10.782;2023-01-01T15:27:39;32.40;99.90
56298;DHT22;42208;6.376;-10.782;2023-01-01T15:30:20;32.40;99.90
56298;DHT22;42208;6.376;-10.782;2023-01-01T15:32:49;32.40;99.90
56298;DHT22;42208;6.376;-10.782;2023-01-01T15:35:28;32.70;99.90
56298;DHT22;42208;6.376;-10.782;2023-01-01T15:38:23;32.90;99.90
56298;DHT22;42208;6.376;-10.782;2023-01-01T15:40:53;33.10;99.90
56298;DHT22;42208;6.376;-10.782;2023-01-01T15:43:29;32.70;99.90
56298;DHT22;42208;6.376;-10.782;2023-01-01T15:46:31;33.00;99.90
56298;DHT22;42208;6.376;-10.782;2023-01-01T15:49:02;33.30;99.90
56298;DHT22;42208;6.376;-10.782;2023-01-01T15:51:30;33.30;99.90
56298;DHT22;42208;6.376;-10.782;2023-01-01T15:54:01;33.30;99.90
56298;DHT22;42208;6.376;-10.782;2023-01-01T15:56:31;33.20;99.90
56298;DHT22;42208;6.376;-10.782;2023-01-01T15:59:06;33.20;99.90
56298;DHT22;42208;6.376;-10.782;2023-01-01T16:01:41;33.30;99.90
56298;DHT22;42208;6.376;-10.782;2023-01-01T16:04:22;33.30;99.90
56298;DHT22;42208;6.376;-10.782;2023-01-01T16:06:57;33.20;99.90
56298;DHT22;42208;6.376;-10.782;2023-01-01T16:09:25;33.50;99.90
56298;DHT22;42208;6.376;-10.782;2023-01-01T16:11:55;33.50;99.90
56298;DHT22;42208;6.376;-10.782;2023-01-01T16:14:23;33.30;99.90
56298;DHT22;42208;6.376;-10.782;2023-01-01T16:16:54;33.10;99.90
56298;DHT22;42208;6.376;-10.782;2023-01-01T16:19:23;33.10;99.90
56298;DHT22;42208;6.376;-10.782;2023-01-01T16:21:52;33.10;99.90
56298;DHT22;42208;6.376;-10.782;2023-01-01T16:24:20;33.30;99.90
56298;DHT22;42208;6.376;-10.782;2023-01-01T16:26:48;33.20;99.90
56298;DHT22;42208;6.376;-10.782;2023-01-01T16:29:17;33.40;99.90
56298;DHT22;42208;6.376;-10.782;2023-01-01T16:31:45;33.10;99.90
56298;DHT22;42208;6.376;-10.782;2023-01-01T16:34:14;33.20;99.90
56298;DHT22;42208;6.376;-10.782;2023-01-01T16:36:44;33.40;99.90
56298;DHT22;42208;6.376;-10.782;2023-01-01T16:39:12;33.20;99.90
56298;DHT22;42208;6.376;-10.782;2023-01-01T16:41:42;33.10;99.90
56298;DHT22;42208;6.376;-10.782;2023-01-01T16:44:13;32.90;99.90
56298;DHT22;42208;6.376;-10.782;2023-01-01T16:46:41;33.00;99.90
56298;DHT22;42208;6.376;-10.782;2023-01-01T16:49:10;32.70;99.90
56298;DHT22;42208;6.376;-10.782;2023-01-01T16:51:38;32.60;99.90
56298;DHT22;42208;6.376;-10.782;2023-01-01T16:54:10;32.70;99.90
56298;DHT22;42208;6.376;-10.782;2023-01-01T16:56:39;32.60;99.90
56298;DHT22;42208;6.376;-10.782;2023-01-01T16:59:07;32.10;99.90
56298;DHT22;42208;6.376;-10.782;2023-01-01T17:01:35;32.00;99.90
56298;DHT22;42208;6.376;-10.782;2023-01-01T17:04:03;31.90;99.90
56298;DHT22;42208;6.376;-10.782;2023-01-01T17:06:32;32.00;99.90
56298;DHT22;42208;6.376;-10.782;2023-01-01T17:09:01;32.00;99.90
56298;DHT22;42208;6.376;-10.782;2023-01-01T17:11:29;32.00;99.90
56298;DHT22;42208;6.376;-10.782;2023-01-01T17:13:58;32.10;99.90
56298;DHT22;42208;6.376;-10.782;2023-01-01T17:16:26;32.00;99.90
56298;DHT22;42208;6.376;-10.782;2023-01-01T17:19:04;31.90;99.90
56298;DHT22;42208;6.376;-10.782;2023-01-01T17:21:46;31.70;99.90
56298;DHT22;42208;6.376;-10.782;2023-01-01T17:24:19;31.30;99.90
56298;DHT22;42208;6.376;-10.782;2023-01-01T17:26:52;31.10;99.90
56298;DHT22;42208;6.376;-10.782;2023-01-01T17:29:21;31.00;99.90
56298;DHT22;42208;6.376;-10.782;2023-01-01T17:31:50;30.80;99.90
56298;DHT22;42208;6.376;-10.782;2023-01-01T17:34:19;30.70;99.90
56298;DHT22;42208;6.376;-10.782;2023-01-01T17:36:47;30.60;99.90
56298;DHT22;42208;6.376;-10.782;2023-01-01T17:39:16;30.50;99.90
56298;DHT22;42208;6.376;-10.782;2023-01-01T17:41:44;30.40;99.90
56298;DHT22;42208;6.376;-10.782;2023-01-01T17:44:12;30.20;99.90
56298;DHT22;42208;6.376;-10.782;2023-01-01T17:46:41;30.30;99.90
56298;DHT22;42208;6.376;-10.782;2023-01-01T17:49:11;30.10;99.90
56298;DHT22;42208;6.376;-10.782;2023-01-01T17:51:39;30.10;99.90
56298;DHT22;42208;6.376;-10.782;2023-01-01T17:54:08;30.00;99.90